Time,TemperatureF,DewpointF,PressureIn,WindDirection,WindDirectionDegrees,WindSpeedMPH,WindSpeedGustMPH,Humidity,HourlyPrecipIn,Conditions,Clouds,dailyrainin,SoftwareType,DateUTC
2013-07-05 00:02:00,71.2,63.0,29.36,East,101,0.0,1.0,74,0.00,,,0.00,weatherlink.com 1.10,2013-07-05 05:02:00,
2013-07-05 00:17:00,71.4,63.0,29.37,East,95,1.0,2.0,75,0.00,,,0.00,weatherlink.com 1.10,2013-07-05 05:17:00,
2013-07-05 00:32:00,71.3,64.0,29.37,East,94,0.0,1.0,77,0.00,,,0.00,weatherlink.com 1.10,2013-07-05 05:32:00,
2013-07-05 00:47:00,71.4,65.0,29.36,ESE,112,2.0,4.0,79,0.00,,,0.00,weatherlink.com 1.10,2013-07-05 05:47:00,
2013-07-05 01:02:00,71.8,65.0,29.36,East,101,1.0,4.0,80,0.00,,,0.00,weatherlink.com 1.10,2013-07-05 06:02:00,
2013-07-05 01:17:00,71.8,66.0,29.35,East,99,4.0,4.0,81,0.00,,,0.00,weatherlink.com 1.10,2013-07-05 06:17:00,
2013-07-05 01:32:00,71.7,66.0,29.36,SE,146,2.0,3.0,82,0.00,,,0.00,weatherlink.com 1.10,2013-07-05 06:32:00,
2013-07-05 01:47:00,71.5,66.0,29.36,East,91,2.0,4.0,83,0.00,,,0.00,weatherlink.com 1.10,2013-07-05 06:47:00,
2013-07-05 02:02:00,71.1,66.0,29.36,ESE,119,1.0,4.0,84,0.00,,,0.00,weatherlink.com 1.10,2013-07-05 07:02:00,
2013-07-05 02:17:00,71.0,66.0,29.36,ESE,111,1.0,4.0,84,0.00,,,0.00,weatherlink.com 1.10,2013-07-05 07:17:00,
2013-07-05 02:32:00,70.7,66.0,29.36,ESE,108,3.0,5.0,85,0.00,,,0.00,weatherlink.com 1.10,2013-07-05 07:32:00,
2013-07-05 02:47:00,70.5,66.0,29.36,SE,136,4.0,6.0,85,0.00,,,0.00,weatherlink.com 1.10,2013-07-05 07:47:00,
2013-07-05 03:02:00,70.1,66.0,29.36,East,81,6.0,6.0,86,0.00,,,0.00,weatherlink.com 1.10,2013-07-05 08:02:00,
2013-07-05 03:17:00,69.9,66.0,29.36,ESE,110,2.0,5.0,87,0.00,,,0.00,weatherlink.com 1.10,2013-07-05 08:17:00,
2013-07-05 03:33:00,69.7,66.0,29.36,East,100,2.0,5.0,88,0.00,,,0.00,weatherlink.com 1.10,2013-07-05 08:33:00,
2013-07-05 03:48:00,69.7,66.0,29.36,ESE,114,0.0,6.0,88,0.00,,,0.00,weatherlink.com 1.10,2013-07-05 08:48:00,
2013-07-05 04:03:00,69.5,66.0,29.36,ESE,116,0.0,3.0,89,0.00,,,0.00,weatherlink.com 1.10,2013-07-05 09:03:00,
2013-07-05 04:18:00,69.0,66.0,29.36,East,82,0.0,1.0,90,0.00,,,0.00,weatherlink.com 1.10,2013-07-05 09:18:00,
2013-07-05 04:48:00,68.4,66.0,29.36,ESE,110,1.0,3.0,91,0.00,,,0.00,weatherlink.com 1.10,2013-07-05 09:48:00,
2013-07-05 05:03:00,68.0,66.0,29.36,East,99,0.0,3.0,92,0.00,,,0.00,weatherlink.com 1.10,2013-07-05 10:03:00,
2013-07-05 05:18:00,67.6,65.0,29.36,SE,124,0.0,2.0,92,0.00,,,0.00,weatherlink.com 1.10,2013-07-05 10:18:00,
2013-07-05 05:48:00,66.1,64.0,29.37,SSE,149,0.0,1.0,94,0.00,,,0.00,weatherlink.com 1.10,2013-07-05 10:48:00,
2013-07-05 06:03:00,66.1,65.0,29.37,ESE,105,0.0,1.0,95,0.00,,,0.00,weatherlink.com 1.10,2013-07-05 11:03:00,
2013-07-05 06:18:00,66.8,65.0,29.38,SE,127,1.0,3.0,94,0.00,,,0.00,weatherlink.com 1.10,2013-07-05 11:18:00,
2013-07-05 06:33:00,67.5,66.0,29.38,SE,131,2.0,3.0,93,0.00,,,0.00,weatherlink.com 1.10,2013-07-05 11:33:00,
2013-07-05 06:48:00,68.5,66.0,29.39,South,169,0.0,3.0,92,0.00,,,0.00,weatherlink.com 1.10,2013-07-05 11:48:00,
2013-07-05 07:19:00,69.8,67.0,29.39,ESE,105,3.0,5.0,91,0.00,,,0.00,weatherlink.com 1.10,2013-07-05 12:19:00,
2013-07-05 07:48:00,71.7,68.0,29.40,SSW,198,4.0,4.0,87,0.00,,,0.00,weatherlink.com 1.10,2013-07-05 12:48:00,
2013-07-05 08:03:00,72.5,68.0,29.40,WSW,254,4.0,5.0,85,0.00,,,0.00,weatherlink.com 1.10,2013-07-05 13:03:00,
2013-07-05 08:33:00,73.6,68.0,29.41,ESE,109,2.0,4.0,83,0.00,,,0.00,weatherlink.com 1.10,2013-07-05 13:33:00,
2013-07-05 08:48:00,73.9,69.0,29.40,ESE,117,1.0,4.0,83,0.00,,,0.00,weatherlink.com 1.10,2013-07-05 13:48:00,
2013-07-05 09:03:00,75.4,69.0,29.40,SE,133,2.0,4.0,80,0.00,,,0.00,weatherlink.com 1.10,2013-07-05 14:03:00,
2013-07-05 09:18:00,76.0,69.0,29.40,SW,222,1.0,5.0,78,0.00,,,0.00,weatherlink.com 1.10,2013-07-05 14:18:00,
2013-07-05 09:33:00,77.1,69.0,29.40,ESE,105,1.0,6.0,76,0.00,,,0.00,weatherlink.com 1.10,2013-07-05 14:33:00,
2013-07-05 09:48:00,77.9,69.0,29.40,SW,217,2.0,7.0,74,0.00,,,0.00,weatherlink.com 1.10,2013-07-05 14:48:00,
2013-07-05 10:03:00,79.2,69.0,29.40,SE,146,1.0,3.0,72,0.00,,,0.00,weatherlink.com 1.10,2013-07-05 15:03:00,
2013-07-05 10:18:00,80.0,68.0,29.40,ESE,121,4.0,5.0,67,0.00,,,0.00,weatherlink.com 1.10,2013-07-05 15:18:00,
2013-07-05 10:33:00,81.2,69.0,29.40,SE,131,3.0,3.0,67,0.00,,,0.00,weatherlink.com 1.10,2013-07-05 15:33:00,
2013-07-05 10:49:00,81.2,67.0,29.40,South,180,5.0,6.0,63,0.00,,,0.00,weatherlink.com 1.10,2013-07-05 15:49:00,
2013-07-05 11:04:00,82.3,67.0,29.39,SE,129,0.0,5.0,60,0.00,,,0.00,weatherlink.com 1.10,2013-07-05 16:04:00,
2013-07-05 11:19:00,81.8,67.0,29.39,SE,129,2.0,6.0,61,0.00,,,0.00,weatherlink.com 1.10,2013-07-05 16:19:00,
2013-07-05 11:34:00,81.9,68.0,29.40,ENE,59,3.0,7.0,62,0.00,,,0.00,weatherlink.com 1.10,2013-07-05 16:34:00,
2013-07-05 11:49:00,83.0,66.0,29.40,South,190,3.0,6.0,57,0.00,,,0.00,weatherlink.com 1.10,2013-07-05 16:49:00,
2013-07-05 12:04:00,83.1,66.0,29.40,SE,125,2.0,7.0,57,0.00,,,0.00,weatherlink.com 1.10,2013-07-05 17:04:00,
2013-07-05 12:19:00,83.3,66.0,29.39,East,86,5.0,9.0,57,0.00,,,0.00,weatherlink.com 1.10,2013-07-05 17:19:00,
2013-07-05 12:34:00,82.1,65.0,29.39,SSE,159,3.0,8.0,56,0.00,,,0.00,weatherlink.com 1.10,2013-07-05 17:34:00,
2013-07-05 12:49:00,83.8,64.0,29.39,East,85,6.0,8.0,51,0.00,,,0.00,weatherlink.com 1.10,2013-07-05 17:49:00,
2013-07-05 13:04:00,84.0,66.0,29.39,East,93,4.0,6.0,54,0.00,,,0.00,weatherlink.com 1.10,2013-07-05 18:04:00,
2013-07-05 13:19:00,84.1,65.0,29.38,ESE,123,4.0,9.0,53,0.00,,,0.00,weatherlink.com 1.10,2013-07-05 18:19:00,
2013-07-05 13:34:00,84.7,66.0,29.38,East,84,3.0,9.0,54,0.00,,,0.00,weatherlink.com 1.10,2013-07-05 18:34:00,
2013-07-05 13:49:00,84.8,65.0,29.38,East,94,8.0,10.0,52,0.00,,,0.00,weatherlink.com 1.10,2013-07-05 18:49:00,
2013-07-05 14:04:00,83.7,65.0,29.38,East,92,5.0,10.0,54,0.00,,,0.00,weatherlink.com 1.10,2013-07-05 19:04:00,
2013-07-05 14:19:00,83.8,65.0,29.37,ENE,75,8.0,10.0,53,0.00,,,0.00,weatherlink.com 1.10,2013-07-05 19:19:00,
2013-07-05 14:34:00,84.1,65.0,29.37,ESE,106,7.0,10.0,53,0.00,,,0.00,weatherlink.com 1.10,2013-07-05 19:34:00,
2013-07-05 14:49:00,85.4,65.0,29.37,South,190,5.0,7.0,50,0.00,,,0.00,weatherlink.com 1.10,2013-07-05 19:49:00,
2013-07-05 15:04:00,84.3,65.0,29.37,SSE,167,5.0,10.0,53,0.00,,,0.00,weatherlink.com 1.10,2013-07-05 20:04:00,
2013-07-05 15:19:00,85.4,64.0,29.36,ENE,77,8.0,11.0,49,0.00,,,0.00,weatherlink.com 1.10,2013-07-05 20:19:00,
2013-07-05 15:34:00,85.5,64.0,29.36,East,101,9.0,10.0,49,0.00,,,0.00,weatherlink.com 1.10,2013-07-05 20:34:00,
2013-07-05 15:49:00,84.4,64.0,29.36,East,91,4.0,10.0,51,0.00,,,0.00,weatherlink.com 1.10,2013-07-05 20:49:00,
2013-07-05 16:04:00,83.9,63.0,29.36,SE,131,3.0,8.0,50,0.00,,,0.00,weatherlink.com 1.10,2013-07-05 21:04:00,
2013-07-05 16:19:00,84.5,64.0,29.36,ESE,108,5.0,9.0,50,0.00,,,0.00,weatherlink.com 1.10,2013-07-05 21:19:00,
2013-07-05 16:34:00,85.0,64.0,29.36,ESE,110,3.0,9.0,49,0.00,,,0.00,weatherlink.com 1.10,2013-07-05 21:34:00,
2013-07-05 16:49:00,84.7,64.0,29.35,ENE,70,1.0,7.0,50,0.00,,,0.00,weatherlink.com 1.10,2013-07-05 21:49:00,
2013-07-05 17:04:00,84.8,64.0,29.34,East,86,5.0,10.0,49,0.00,,,0.00,weatherlink.com 1.10,2013-07-05 22:04:00,
2013-07-05 17:19:00,84.3,64.0,29.34,ENE,71,4.0,9.0,50,0.00,,,0.00,weatherlink.com 1.10,2013-07-05 22:19:00,
2013-07-05 17:34:00,83.9,64.0,29.34,SW,222,3.0,9.0,51,0.00,,,0.00,weatherlink.com 1.10,2013-07-05 22:34:00,
2013-07-05 17:49:00,84.0,63.0,29.34,SE,139,2.0,10.0,50,0.00,,,0.00,weatherlink.com 1.10,2013-07-05 22:49:00,
2013-07-05 18:04:00,84.3,62.0,29.33,South,189,2.0,11.0,47,0.00,,,0.00,weatherlink.com 1.10,2013-07-05 23:04:00,
2013-07-05 18:19:00,84.2,61.0,29.33,East,81,5.0,11.0,46,0.00,,,0.00,weatherlink.com 1.10,2013-07-05 23:19:00,
2013-07-05 18:34:00,83.7,60.0,29.33,SSW,193,6.0,7.0,45,0.00,,,0.00,weatherlink.com 1.10,2013-07-05 23:34:00,
2013-07-05 18:49:00,83.7,61.0,29.33,SSE,148,2.0,9.0,47,0.00,,,0.00,weatherlink.com 1.10,2013-07-05 23:49:00,
2013-07-05 19:04:00,83.2,62.0,29.33,ESE,107,4.0,8.0,49,0.00,,,0.00,weatherlink.com 1.10,2013-07-06 00:04:00,
2013-07-05 19:19:00,82.3,63.0,29.33,South,179,2.0,8.0,52,0.00,,,0.00,weatherlink.com 1.10,2013-07-06 00:19:00,
2013-07-05 19:34:00,82.3,63.0,29.34,SE,139,1.0,6.0,52,0.00,,,0.00,weatherlink.com 1.10,2013-07-06 00:34:00,
2013-07-05 19:49:00,81.6,63.0,29.34,SSW,211,2.0,4.0,54,0.00,,,0.00,weatherlink.com 1.10,2013-07-06 00:49:00,
2013-07-05 20:04:00,80.8,64.0,29.34,SSE,159,0.0,3.0,56,0.00,,,0.00,weatherlink.com 1.10,2013-07-06 01:04:00,
2013-07-05 20:19:00,80.0,64.0,29.34,SE,129,1.0,3.0,58,0.00,,,0.00,weatherlink.com 1.10,2013-07-06 01:19:00,
2013-07-05 20:34:00,78.7,64.0,29.34,SE,124,1.0,3.0,61,0.00,,,0.00,weatherlink.com 1.10,2013-07-06 01:34:00,
2013-07-05 20:49:00,78.4,64.0,29.33,SE,133,1.0,3.0,61,0.00,,,0.00,weatherlink.com 1.10,2013-07-06 01:49:00,
2013-07-05 21:04:00,78.0,65.0,29.33,ESE,112,1.0,4.0,64,0.00,,,0.00,weatherlink.com 1.10,2013-07-06 02:04:00,
2013-07-05 21:19:00,77.7,65.0,29.34,ESE,114,2.0,5.0,66,0.00,,,0.00,weatherlink.com 1.10,2013-07-06 02:19:00,
2013-07-05 21:34:00,77.5,66.0,29.34,ESE,110,1.0,6.0,68,0.00,,,0.00,weatherlink.com 1.10,2013-07-06 02:34:00,
2013-07-05 21:49:00,77.2,67.0,29.35,East,82,4.0,5.0,70,0.00,,,0.00,weatherlink.com 1.10,2013-07-06 02:49:00,
2013-07-05 22:04:00,77.0,67.0,29.35,SSE,163,3.0,7.0,71,0.00,,,0.00,weatherlink.com 1.10,2013-07-06 03:04:00,
2013-07-05 22:19:00,76.6,67.0,29.35,SE,124,3.0,10.0,72,0.00,,,0.00,weatherlink.com 1.10,2013-07-06 03:19:00,
2013-07-05 22:34:00,76.1,67.0,29.35,East,98,6.0,8.0,74,0.00,,,0.00,weatherlink.com 1.10,2013-07-06 03:34:00,
2013-07-05 22:49:00,75.7,67.0,29.35,SE,124,2.0,6.0,75,0.00,,,0.00,weatherlink.com 1.10,2013-07-06 03:49:00,
2013-07-05 23:04:00,75.3,67.0,29.35,East,98,4.0,7.0,75,0.00,,,0.00,weatherlink.com 1.10,2013-07-06 04:04:00,
2013-07-05 23:19:00,75.0,67.0,29.35,East,84,1.0,5.0,76,0.00,,,0.00,weatherlink.com 1.10,2013-07-06 04:19:00,
2013-07-05 23:34:00,74.6,67.0,29.36,SSE,152,3.0,6.0,77,0.00,,,0.00,weatherlink.com 1.10,2013-07-06 04:34:00,
2013-07-05 23:49:00,74.3,67.0,29.35,East,91,2.0,4.0,77,0.00,,,0.00,weatherlink.com 1.10,2013-07-06 04:49:00,